Time;durP1;ratioP1;P1;durP2;ratioP2;P2;SDS_P1;SDS_P2;PMS_P1;PMS_P2;Temp;Humidity;BMP_temperature;BMP_pressure;BME280_temperature;BME280_humidity;BME280_pressure;Samples;Min_cycle;Max_cycle;Signal;HPM_P1;HPM_P2
2022/08/05 00:01:30;;;;;;;;;;;;;;;31.55;25.71;99117.59;4515078;31;35208;-84
2022/08/05 00:04:15;;;;;;;;;;;;;;;31.71;25.52;99110.97;4515283;31;34553;-84
2022/08/05 00:06:42;;;;;;;;;;;;;;;31.73;25.40;99097.44;4515275;31;33993;-84
2022/08/05 00:09:09;;;;;;;;;;;;;;;31.70;25.40;99105.72;4515356;31;33625;-84
2022/08/05 00:11:39;;;;;;;;;;;;;;;31.66;25.51;99102.41;4514898;31;34952;-84
2022/08/05 00:14:15;;;;;;;;;;;;;;;31.70;25.40;99109.25;4515330;31;33775;-84
2022/08/05 00:16:44;;;;;;;;;;;;;;;31.35;25.97;99109.19;4500709;31;32460;-84
2022/08/05 00:19:23;;;;;;;;;;;;;;;31.41;25.71;99102.56;4513933;31;34043;-84
2022/08/05 00:21:59;;;;;;;;;;;;;;;31.60;25.80;99102.88;4513728;31;34444;-85
2022/08/05 00:24:26;;;;;;;;;;;;;;;31.12;26.21;99107.34;4514465;31;33271;-84
2022/08/05 00:26:57;;;;;;;;;;;;;;;31.61;25.45;99103.75;4513908;31;32995;-84
2022/08/05 00:29:25;;;;;;;;;;;;;;;30.96;26.35;99113.81;4515135;31;34670;-84
2022/08/05 00:32:05;;;;;;;;;;;;;;;31.50;25.84;99105.38;4514638;31;35307;-85
2022/08/05 00:34:42;;;;;;;;;;;;;;;31.06;26.31;99113.12;4513531;31;33348;-84
2022/08/05 00:37:29;;;;;;;;;;;;;;;30.96;26.61;99113.81;4513801;31;33773;-84
2022/08/05 00:40:17;;;;;;;;;;;;;;;31.10;26.24;99110.09;4514801;31;34845;-84
2022/08/05 00:42:55;;;;;;;;;;;;;;;31.06;26.34;99113.12;4514645;31;34363;-84
2022/08/05 00:45:23;;;;;;;;;;;;;;;31.27;25.84;99106.22;4513314;31;33722;-84
2022/08/05 00:48:15;;;;;;;;;;;;;;;31.04;26.24;99109.72;4515000;31;33064;-84
2022/08/05 00:50:44;;;;;;;;;;;;;;;31.05;26.33;99111.41;4512964;31;35026;-84
2022/08/05 00:53:16;;;;;;;;;;;;;;;31.23;26.12;99107.41;4513549;31;34374;-84
2022/08/05 00:56:04;;;;;;;;;;;;;;;31.13;26.19;99109.03;4514518;31;33932;-84
2022/08/05 00:58:34;;;;;;;;;;;;;;;31.40;25.64;99099.00;4514506;31;34293;-84
2022/08/05 01:01:03;;;;;;;;;;;;;;;31.55;25.38;99093.47;4514435;31;34025;-84
2022/08/05 01:03:36;;;;;;;;;;;;;;;31.38;25.52;99087.56;4514349;31;35298;-84
2022/08/05 01:06:03;;;;;;;;;;;;;;;31.40;25.48;99093.63;4514233;31;33356;-84
2022/08/05 01:08:32;;;;;;;;;;;;;;;31.52;25.16;99093.69;4514123;31;33202;-84
2022/08/05 01:11:11;;;;;;;;;;;;;;;31.58;24.91;99093.25;4514104;31;35006;-84
2022/08/05 01:13:42;;;;;;;;;;;;;;;31.57;25.07;99091.53;4500017;31;33863;-84
2022/08/05 01:16:31;;;;;;;;;;;;;;;31.42;25.25;99093.53;4514068;31;33825;-84
2022/08/05 01:19:00;;;;;;;;;;;;;;;31.25;25.63;99089.38;4514287;31;33271;-84
2022/08/05 01:21:33;;;;;;;;;;;;;;;31.17;25.66;99084.59;4512765;31;34353;-84
2022/08/05 01:24:04;;;;;;;;;;;;;;;31.17;25.70;99083.75;4512889;31;35256;-84
2022/08/05 01:26:47;;;;;;;;;;;;;;;30.91;25.89;99091.00;4513968;31;33930;-84
2022/08/05 01:29:24;;;;;;;;;;;;;;;31.18;25.62;99091.69;4512640;31;33323;-84
2022/08/05 01:31:53;;;;;;;;;;;;;;;31.02;25.63;99091.06;4512485;31;34216;-84
2022/08/05 01:34:29;;;;;;;;;;;;;;;31.09;25.62;99091.47;4512693;31;35113;-84
2022/08/05 01:37:05;;;;;;;;;;;;;;;31.29;25.40;99087.34;4515364;31;34386;-84
2022/08/05 01:39:35;;;;;;;;;;;;;;;30.69;26.42;99094.34;4514952;31;32925;-84
2022/08/05 01:42:15;;;;;;;;;;;;;;;31.05;25.78;99095.34;4515957;31;33952;-84
2022/08/05 01:44:42;;;;;;;;;;;;;;;30.88;25.87;99094.75;4515140;31;33992;-84
2022/08/05 01:47:11;;;;;;;;;;;;;;;31.01;25.50;99102.75;4516084;31;33846;-84
2022/08/05 01:49:40;;;;;;;;;;;;;;;31.22;25.10;99101.19;4514593;31;33288;-85
2022/08/05 01:52:27;;;;;;;;;;;;;;;31.40;25.03;99100.81;4514867;31;33950;-84
2022/08/05 01:54:57;;;;;;;;;;;;;;;31.23;25.18;99096.69;4515852;31;34318;-84
2022/08/05 01:57:33;;;;;;;;;;;;;;;31.23;25.27;99096.69;4516014;31;34241;-84
2022/08/05 02:00:20;;;;;;;;;;;;;;;31.27;25.09;99099.03;4514775;31;33090;-84
2022/08/05 02:02:58;;;;;;;;;;;;;;;31.29;25.04;99093.53;4514783;31;34999;-84
2022/08/05 02:05:30;;;;;;;;;;;;;;;31.28;25.02;99097.19;4514641;31;34245;-84
2022/08/05 02:08:02;;;;;;;;;;;;;;;31.20;25.24;99092.41;4514669;31;34808;-84
2022/08/05 02:10:40;;;;;;;;;;;;;;;31.23;25.23;99089.50;4515849;31;33212;-84
2022/08/05 02:13:12;;;;;;;;;;;;;;;31.15;25.47;99088.38;4514362;31;34330;-84
2022/08/05 02:15:49;;;;;;;;;;;;;;;30.82;25.75;99092.53;4514725;31;34870;-84
2022/08/05 02:18:19;;;;;;;;;;;;;;;30.88;25.83;99091.22;4514693;31;33682;-84
2022/08/05 02:21:04;;;;;;;;;;;;;;;30.92;25.78;99093.56;4516081;31;33560;-84
2022/08/05 02:23:40;;;;;;;;;;;;;;;30.90;25.70;99090.12;4515955;31;34036;-84
2022/08/05 02:26:08;;;;;;;;;;;;;;;30.99;25.64;99092.16;4514564;31;35391;-84
2022/08/05 02:28:39;;;;;;;;;;;;;;;30.90;25.72;99089.28;4515579;31;34072;-84
2022/08/05 02:31:22;;;;;;;;;;;;;;;30.88;25.77;99089.41;4502004;31;33872;-84
2022/08/05 02:33:50;;;;;;;;;;;;;;;30.86;25.67;99093.16;4514545;31;34817;-84
2022/08/05 02:36:24;;;;;;;;;;;;;;;30.87;25.69;99089.50;4515983;31;34073;-84
2022/08/05 02:38:54;;;;;;;;;;;;;;;30.92;25.62;99090.03;4514563;31;33854;-84
2022/08/05 02:41:24;;;;;;;;;;;;;;;31.01;25.58;99084.88;4514559;31;33940;-84
2022/08/05 02:43:56;;;;;;;;;;;;;;;30.89;25.59;99080.41;4514329;31;34094;-84
2022/08/05 02:46:37;;;;;;;;;;;;;;;30.99;25.42;99076.09;4514411;31;35030;-84
2022/08/05 02:49:26;;;;;;;;;;;;;;;30.83;25.71;99086.19;4514570;31;34270;-84
2022/08/05 02:52:10;;;;;;;;;;;;;;;30.85;25.80;99092.31;4514265;31;34033;-85
2022/08/05 02:54:56;;;;;;;;;;;;;;;30.66;26.01;99084.69;4515375;31;35762;-84
2022/08/05 02:57:27;;;;;;;;;;;;;;;30.77;25.77;99086.66;4501745;31;34335;-84
2022/08/05 03:00:15;;;;;;;;;;;;;;;30.65;25.87;99090.16;4514298;31;34965;-84
2022/08/05 03:02:43;;;;;;;;;;;;;;;30.89;25.55;99084.91;4514329;31;34102;-84
2022/08/05 03:05:10;;;;;;;;;;;;;;;30.75;25.79;99080.53;4514171;31;34195;-84
2022/08/05 03:07:38;;;;;;;;;;;;;;;30.72;25.91;99078.94;4514640;31;33855;-84
2022/08/05 03:10:26;;;;;;;;;;;;;;;30.67;25.88;99074.84;4515345;31;35073;-84
2022/08/05 03:12:53;;;;;;;;;;;;;;;30.63;26.07;99073.38;4515310;31;33835;-84
2022/08/05 03:15:21;;;;;;;;;;;;;;;30.78;25.82;99072.28;4515674;31;33961;-84
2022/08/05 03:17:53;;;;;;;;;;;;;;;30.44;26.32;99068.47;4515526;31;34237;-84
2022/08/05 03:20:23;;;;;;;;;;;;;;;30.57;26.22;99068.44;4515581;31;33545;-84
2022/08/05 03:22:51;;;;;;;;;;;;;;;30.61;26.08;99064.56;4514091;31;33510;-84
2022/08/05 03:25:18;;;;;;;;;;;;;;;30.57;26.16;99060.41;4513773;31;34233;-84
2022/08/05 03:28:06;;;;;;;;;;;;;;;30.49;26.27;99061.81;4515264;31;34915;-84
2022/08/05 03:30:34;;;;;;;;;;;;;;;30.60;26.27;99062.87;4515250;31;33655;-84
2022/08/05 03:33:02;;;;;;;;;;;;;;;30.52;26.24;99058.06;4513936;31;33814;-84
2022/08/05 03:35:32;;;;;;;;;;;;;;;30.40;26.56;99058.94;4515299;31;34154;-84
2022/08/05 03:38:09;;;;;;;;;;;;;;;30.58;26.29;99059.47;4513947;31;34084;-84
2022/08/05 03:40:41;;;;;;;;;;;;;;;30.62;26.29;99063.63;4513813;31;33640;-84
2022/08/05 03:43:13;;;;;;;;;;;;;;;30.63;26.11;99057.31;4513798;31;33472;-84
2022/08/05 03:46:01;;;;;;;;;;;;;;;30.62;26.18;99060.97;4514136;31;33705;-84
2022/08/05 03:48:28;;;;;;;;;;;;;;;30.63;26.17;99057.31;4513639;31;34059;-84
2022/08/05 03:51:03;;;;;;;;;;;;;;;30.60;26.16;99061.03;4513810;31;33782;-84
2022/08/05 03:53:54;;;;;;;;;;;;;;;30.43;26.46;99056.06;4515174;31;33753;-84
2022/08/05 03:56:42;;;;;;;;;;;;;;;30.52;26.52;99064.28;4514064;31;34494;-84
2022/08/05 03:59:13;;;;;;;;;;;;;;;30.50;26.68;99058.19;4513080;31;34484;-84
2022/08/05 04:01:47;;;;;;;;;;;;;;;30.26;27.13;99059.91;4513856;31;33771;-84
2022/08/05 04:04:14;;;;;;;;;;;;;;;30.58;26.88;99060.31;4513737;31;32620;-84
2022/08/05 04:06:47;;;;;;;;;;;;;;;30.61;26.99;99061.91;4513883;31;33906;-84
2022/08/05 04:09:18;;;;;;;;;;;;;;;30.70;26.86;99063.94;4513623;31;34776;-84
2022/08/05 04:11:53;;;;;;;;;;;;;;;30.59;27.06;99066.53;4513670;31;35107;-84
2022/08/05 04:14:23;;;;;;;;;;;;;;;30.74;27.06;99060.09;4513821;31;33512;-84
2022/08/05 04:17:00;;;;;;;;;;;;;;;30.53;27.41;99067.78;4515236;31;33785;-84
2022/08/05 04:19:29;;;;;;;;;;;;;;;30.76;27.14;99063.50;4513686;31;34552;-84
2022/08/05 04:21:57;;;;;;;;;;;;;;;30.92;26.92;99064.13;4514885;31;34039;-84
2022/08/05 04:24:42;;;;;;;;;;;;;;;31.12;26.68;99059.12;4514804;31;33833;-84
2022/08/05 04:27:13;;;;;;;;;;;;;;;31.41;26.34;99059.69;4513624;31;34121;-84
2022/08/05 04:29:41;;;;;;;;;;;;;;;31.63;26.28;99054.41;4514598;31;34505;-84
2022/08/05 04:32:09;;;;;;;;;;;;;;;31.56;26.22;99053.16;4513362;31;33415;-84
2022/08/05 04:34:36;;;;;;;;;;;;;;;32.05;24.46;99054.81;4513463;31;33348;-84
2022/08/05 04:37:09;;;;;;;;;;;;;;;32.55;24.43;99051.81;4514752;31;34122;-84
2022/08/05 04:39:37;;;;;;;;;;;;;;;33.08;23.79;99050.19;4514459;31;34334;-84
2022/08/05 04:42:06;;;;;;;;;;;;;;;33.16;23.54;99057.63;4514556;31;34875;-84
2022/08/05 04:44:35;;;;;;;;;;;;;;;33.07;23.79;99050.31;4514651;31;33165;-84
2022/08/05 04:47:02;;;;;;;;;;;;;;;33.43;23.38;99055.31;4514711;31;33908;-84
2022/08/05 04:49:37;;;;;;;;;;;;;;;32.97;23.75;99052.06;4514190;31;34191;-84
2022/08/05 04:52:24;;;;;;;;;;;;;;;32.40;25.25;99057.44;4514604;31;34180;-84
2022/08/05 04:54:54;;;;;;;;;;;;;;;32.66;24.75;99054.50;4514376;31;33239;-84
2022/08/05 04:57:24;;;;;;;;;;;;;;;32.11;25.09;99058.81;4514442;31;34046;-84
2022/08/05 04:59:56;;;;;;;;;;;;;;;32.57;25.27;99058.75;4514425;31;34251;-84
2022/08/05 05:02:25;;;;;;;;;;;;;;;31.78;26.20;99057.72;4513101;31;34081;-84
2022/08/05 05:05:04;;;;;;;;;;;;;;;32.93;25.64;99063.03;4513316;31;33182;-84
2022/08/05 05:07:52;;;;;;;;;;;;;;;33.02;25.47;99057.88;4514174;31;34616;-84
2022/08/05 05:10:27;;;;;;;;;;;;;;;33.01;25.62;99054.34;4514479;31;34411;-84
2022/08/05 05:12:56;;;;;;;;;;;;;;;33.35;24.81;99054.25;4516222;31;33495;-84
2022/08/05 05:15:24;;;;;;;;;;;;;;;33.70;23.91;99050.47;4516503;31;34154;-84
2022/08/05 05:18:13;;;;;;;;;;;;;;;32.77;24.83;99057.19;4516447;31;34842;-84
2022/08/05 05:20:54;;;;;;;;;;;;;;;32.53;25.80;99059.12;4516102;31;34186;-84
2022/08/05 05:23:24;;;;;;;;;;;;;;;32.35;25.85;99064.97;4516086;31;34046;-84
2022/08/05 05:25:51;;;;;;;;;;;;;;;32.85;25.82;99061.94;4514875;31;31821;-84
2022/08/05 05:28:18;;;;;;;;;;;;;;;33.41;25.27;99057.28;4515044;31;34882;-84
2022/08/05 05:30:46;;;;;;;;;;;;;;;33.16;25.26;99053.09;4516021;31;35298;-84
2022/08/05 05:33:15;;;;;;;;;;;;;;;33.31;25.60;99050.97;4516289;31;34919;-84
2022/08/05 05:35:49;;;;;;;;;;;;;;;33.79;24.37;99055.94;4515902;31;33459;-84
2022/08/05 05:38:17;;;;;;;;;;;;;;;33.86;24.47;99054.41;4514927;31;34771;-84
2022/08/05 05:40:54;;;;;;;;;;;;;;;33.17;24.40;99051.25;4516208;31;34042;-84
2022/08/05 05:43:21;;;;;;;;;;;;;;;33.64;25.09;99046.44;4516016;31;33813;-84
2022/08/05 05:46:09;;;;;;;;;;;;;;;33.81;24.09;99053.94;4515203;31;32878;-84
2022/08/05 05:48:44;;;;;;;;;;;;;;;33.93;24.97;99048.50;4515910;31;33491;-84
2022/08/05 05:51:21;;;;;;;;;;;;;;;34.36;24.51;99048.34;4514603;31;34650;-84
2022/08/05 05:53:49;;;;;;;;;;;;;;;34.97;23.26;99042.09;4515770;31;34456;-84
2022/08/05 05:56:29;;;;;;;;;;;;;;;33.85;22.71;99044.62;4515979;31;33439;-84
2022/08/05 05:59:03;;;;;;;;;;;;;;;33.20;23.06;99040.25;4501747;31;34166;-84
2022/08/05 06:01:36;;;;;;;;;;;;;;;32.49;24.05;99046.94;4514653;31;35261;-83
2022/08/05 06:04:06;;;;;;;;;;;;;;;33.18;23.58;99044.91;4514662;31;34761;-84
2022/08/05 06:06:39;;;;;;;;;;;;;;;34.09;22.63;99051.59;4515762;31;33060;-84
2022/08/05 06:09:08;;;;;;;;;;;;;;;32.90;23.12;99040.91;4515824;31;34123;-83
2022/08/05 06:11:44;;;;;;;;;;;;;;;32.94;23.54;99043.25;4515717;31;34690;-84
2022/08/05 06:14:31;;;;;;;;;;;;;;;34.16;22.64;99052.78;4515772;31;34617;-84
2022/08/05 06:17:00;;;;;;;;;;;;;;;32.42;23.50;99052.78;4515956;31;33770;-84
2022/08/05 06:19:48;;;;;;;;;;;;;;;33.30;23.38;99054.66;4514809;31;34748;-84
2022/08/05 06:22:29;;;;;;;;;;;;;;;34.22;22.24;99052.25;4515357;31;35129;-84
2022/08/05 06:25:00;;;;;;;;;;;;;;;33.97;22.33;99058.00;4514539;31;34007;-85
2022/08/05 06:27:47;;;;;;;;;;;;;;;32.96;22.76;99051.22;4515828;31;33981;-84
2022/08/05 06:30:35;;;;;;;;;;;;;;;33.54;21.94;99046.38;4515521;31;34999;-84
2022/08/05 06:33:02;;;;;;;;;;;;;;;33.86;21.92;99051.72;4515843;31;34481;-83
2022/08/05 06:35:30;;;;;;;;;;;;;;;33.79;21.03;99044.31;4515413;31;34923;-84
2022/08/05 06:38:17;;;;;;;;;;;;;;;34.35;20.69;99047.50;4514587;31;33497;-83
2022/08/05 06:41:03;;;;;;;;;;;;;;;34.54;20.57;99051.31;4515330;31;33880;-83
2022/08/05 06:43:30;;;;;;;;;;;;;;;34.92;20.25;99041.63;4515575;31;35018;-83
2022/08/05 06:46:17;;;;;;;;;;;;;;;34.82;20.12;99047.87;4515467;31;34800;-84
2022/08/05 06:48:45;;;;;;;;;;;;;;;34.34;20.68;99055.72;4515123;31;33196;-85
2022/08/05 06:51:24;;;;;;;;;;;;;;;33.79;21.36;99055.94;4515427;31;34301;-84
2022/08/05 06:53:57;;;;;;;;;;;;;;;33.32;21.98;99055.34;4515243;31;33954;-84
2022/08/05 06:56:25;;;;;;;;;;;;;;;34.50;21.26;99052.56;4501126;31;33174;-84
2022/08/05 06:58:53;;;;;;;;;;;;;;;33.58;21.37;99050.53;4515477;31;34298;-85
2022/08/05 07:01:20;;;;;;;;;;;;;;;33.94;21.11;99050.22;4515436;31;34802;-85
2022/08/05 07:03:48;;;;;;;;;;;;;;;34.13;21.46;99061.13;4515529;31;34345;-83
2022/08/05 07:06:16;;;;;;;;;;;;;;;34.51;21.10;99054.25;4514352;31;33519;-84
2022/08/05 07:08:47;;;;;;;;;;;;;;;34.28;20.90;99067.00;4515486;31;33875;-84
2022/08/05 07:11:20;;;;;;;;;;;;;;;33.36;21.86;99059.50;4515688;31;34092;-87
2022/08/05 07:16:50;;;;;;;;;;;;;;;32.35;22.80;99072.13;4515188;31;33846;-87
2022/08/05 07:19:38;;;;;;;;;;;;;;;34.36;21.23;99060.00;4515399;31;34050;-86
2022/08/05 07:22:25;;;;;;;;;;;;;;;35.33;20.74;99060.31;4515432;31;33781;-86
2022/08/05 07:24:57;;;;;;;;;;;;;;;35.89;20.13;99056.06;4514213;31;34528;-86
2022/08/05 07:27:24;;;;;;;;;;;;;;;35.52;20.60;99064.03;4515397;31;33876;-86
2022/08/05 07:30:11;;;;;;;;;;;;;;;35.93;20.10;99053.94;4515334;31;33235;-86
2022/08/05 07:32:56;;;;;;;;;;;;;;;34.38;21.36;99049.94;4514455;31;34462;-85
2022/08/05 07:35:23;;;;;;;;;;;;;;;35.36;20.70;99050.25;4514997;31;34060;-84
2022/08/05 07:38:11;;;;;;;;;;;;;;;35.44;20.64;99051.25;4515251;31;34265;-84
2022/08/05 07:40:58;;;;;;;;;;;;;;;35.49;20.77;99057.09;4515284;31;33359;-85
2022/08/05 07:43:45;;;;;;;;;;;;;;;34.62;21.19;99048.78;4515058;31;35370;-83
2022/08/05 07:46:13;;;;;;;;;;;;;;;34.06;21.74;99054.59;4515018;31;35285;-83
2022/08/05 07:48:55;;;;;;;;;;;;;;;35.13;21.13;99047.81;4515212;31;34095;-85
2022/08/05 07:51:32;;;;;;;;;;;;;;;35.04;20.58;99041.44;4514164;31;32824;-83
2022/08/05 07:54:22;;;;;;;;;;;;;;;35.80;20.19;99041.63;4503185;31;35038;-83
2022/08/05 07:56:53;;;;;;;;;;;;;;;34.63;21.47;99055.87;4501243;31;33416;-84
2022/08/05 07:59:40;;;;;;;;;;;;;;;34.79;21.37;99048.13;4514059;31;34801;-83
2022/08/05 08:02:08;;;;;;;;;;;;;;;34.33;21.58;99045.94;4514720;31;33472;-84
2022/08/05 08:04:46;;;;;;;;;;;;;;;34.90;21.28;99051.72;4515030;31;35007;-83
2022/08/05 08:07:16;;;;;;;;;;;;;;;35.60;20.78;99050.69;4515496;31;35370;-83
2022/08/05 08:09:44;;;;;;;;;;;;;;;35.88;19.91;99048.09;4514913;31;34621;-84
2022/08/05 08:12:14;;;;;;;;;;;;;;;34.81;20.84;99051.53;4514931;31;33948;-84
2022/08/05 08:15:02;;;;;;;;;;;;;;;35.00;20.69;99041.81;4513689;31;35179;-84
2022/08/05 08:17:31;;;;;;;;;;;;;;;35.00;21.01;99044.53;4514909;31;34203;-84
2022/08/05 08:19:58;;;;;;;;;;;;;;;35.36;20.79;99045.72;4514865;31;34061;-82
2022/08/05 08:22:53;;;;;;;;;;;;;;;35.83;19.79;99045.84;4514836;31;35124;-84
2022/08/05 08:25:22;;;;;;;;;;;;;;;35.27;21.01;99044.72;4513360;31;34828;-84
2022/08/05 08:28:09;;;;;;;;;;;;;;;34.71;21.02;99050.66;4513943;31;34389;-84
2022/08/05 08:30:45;;;;;;;;;;;;;;;34.85;21.06;99050.28;4514455;31;34162;-84
2022/08/05 08:33:16;;;;;;;;;;;;;;;35.06;21.01;99041.28;4514707;31;33464;-85
2022/08/05 08:35:45;;;;;;;;;;;;;;;34.95;20.86;99044.06;4513485;31;34059;-84
2022/08/05 08:38:29;;;;;;;;;;;;;;;35.60;20.59;99036.38;4513584;31;34158;-84
2022/08/05 08:41:03;;;;;;;;;;;;;;;35.19;20.69;99046.38;4514550;31;34387;-83
2022/08/05 08:43:32;;;;;;;;;;;;;;;35.10;20.94;99040.00;4513517;31;34075;-85
2022/08/05 08:46:20;;;;;;;;;;;;;;;36.11;20.44;99043.28;4512988;31;34222;-83
2022/08/05 08:48:48;;;;;;;;;;;;;;;36.23;19.79;99045.66;4513098;31;35224;-84
2022/08/05 08:51:35;;;;;;;;;;;;;;;37.07;19.08;99039.34;4513297;31;34123;-84
2022/08/05 08:54:24;;;;;;;;;;;;;;;36.85;18.74;99042.44;4513450;31;33379;-83
2022/08/05 08:56:53;;;;;;;;;;;;;;;37.14;18.57;99036.88;4513088;31;35102;-85
2022/08/05 08:59:22;;;;;;;;;;;;;;;37.09;18.74;99044.56;4513001;31;34480;-83
2022/08/05 09:02:00;;;;;;;;;;;;;;;37.13;19.04;99036.03;4513262;31;34862;-83
2022/08/05 09:04:28;;;;;;;;;;;;;;;35.98;19.94;99035.47;4513008;31;32981;-83
2022/08/05 09:06:57;;;;;;;;;;;;;;;36.81;19.26;99038.34;4513068;31;34001;-83
2022/08/05 09:09:25;;;;;;;;;;;;;;;36.59;19.42;99037.72;4513019;31;35350;-83
2022/08/05 09:12:02;;;;;;;;;;;;;;;37.23;19.97;99031.38;4512990;31;34196;-84
2022/08/05 09:14:50;;;;;;;;;;;;;;;37.66;18.22;99027.09;4513856;31;33380;-84
2022/08/05 09:17:27;;;;;;;;;;;;;;;37.15;18.94;99025.06;4512896;31;34852;-85
2022/08/05 09:20:09;;;;;;;;;;;;;;;35.81;19.90;99031.69;4512794;31;35274;-83
2022/08/05 09:22:55;;;;;;;;;;;;;;;35.91;20.27;99027.09;4514109;31;33957;-83
2022/08/05 09:25:32;;;;;;;;;;;;;;;35.85;19.89;99027.69;4514005;31;33126;-83
2022/08/05 09:28:22;;;;;;;;;;;;;;;36.69;19.43;99019.63;4513755;31;34334;-84
2022/08/05 09:30:53;;;;;;;;;;;;;;;37.53;18.39;99012.25;4512866;31;33848;-84
2022/08/05 09:33:22;;;;;;;;;;;;;;;36.96;18.35;99015.22;4514097;31;34884;-83
2022/08/05 09:36:02;;;;;;;;;;;;;;;37.07;18.84;99012.31;4489104;31;32470;-83
2022/08/05 09:38:55;;;;;;;;;;;;;;;36.28;19.33;99008.25;4514094;31;34281;-83
2022/08/05 09:41:23;;;;;;;;;;;;;;;37.01;18.66;99005.69;4512802;31;35393;-85
2022/08/05 09:43:51;;;;;;;;;;;;;;;36.12;19.99;99009.91;4512634;31;33860;-84
2022/08/05 09:46:25;;;;;;;;;;;;;;;36.63;18.76;99009.41;4513703;31;32833;-85
2022/08/05 09:48:57;;;;;;;;;;;;;;;35.65;20.20;99002.59;4513476;31;34997;-93
2022/08/05 09:51:45;;;;;;;;;;;;;;;36.49;19.29;99002.69;4513570;31;33993;-82
2022/08/05 09:54:16;;;;;;;;;;;;;;;36.56;19.64;99000.25;4513664;31;34247;-83
2022/08/05 09:56:55;;;;;;;;;;;;;;;36.16;19.39;98993.25;4513176;31;34100;-83
2022/08/05 09:59:24;;;;;;;;;;;;;;;36.16;19.83;98992.41;4516042;31;34005;-83
2022/08/05 10:01:56;;;;;;;;;;;;;;;36.97;18.95;98987.19;4514767;31;33279;-83
2022/08/05 10:04:33;;;;;;;;;;;;;;;36.99;18.38;98979.81;4514556;31;34816;-83
2022/08/05 10:07:00;;;;;;;;;;;;;;;37.64;17.81;98980.41;4514731;31;32385;-83
2022/08/05 10:09:54;;;;;;;;;;;;;;;38.26;17.41;98982.16;4514856;31;33676;-83
2022/08/05 10:12:42;;;;;;;;;;;;;;;38.45;17.40;98984.63;4514395;31;34485;-84
2022/08/05 10:15:16;;;;;;;;;;;;;;;38.40;17.50;98981.59;4515765;31;34271;-83
2022/08/05 10:18:02;;;;;;;;;;;;;;;38.75;17.11;98969.66;4515832;31;34366;-84
2022/08/05 10:20:30;;;;;;;;;;;;;;;37.53;17.50;98974.41;4515870;31;34315;-83
2022/08/05 10:22:59;;;;;;;;;;;;;;;38.34;16.78;98971.37;4515785;31;34953;-83
2022/08/05 10:25:27;;;;;;;;;;;;;;;37.79;17.23;98961.72;4514270;31;34944;-83
2022/08/05 10:27:54;;;;;;;;;;;;;;;38.50;17.91;98955.22;4515829;31;33435;-84
2022/08/05 10:30:42;;;;;;;;;;;;;;;39.00;16.35;98951.63;4514644;31;34121;-84
2022/08/05 10:33:31;;;;;;;;;;;;;;;39.11;16.58;98945.88;4503895;31;34344;-82
2022/08/05 10:36:03;;;;;;;;;;;;;;;38.74;16.14;98951.72;4514370;31;34844;-83
2022/08/05 10:38:31;;;;;;;;;;;;;;;39.74;15.81;98957.97;4514586;31;33537;-83
2022/08/05 10:41:05;;;;;;;;;;;;;;;39.01;15.92;98950.63;4514430;31;33899;-83
2022/08/05 10:43:46;;;;;;;;;;;;;;;39.54;15.25;98946.56;4515696;31;35273;-85
2022/08/05 10:46:15;;;;;;;;;;;;;;;38.49;16.88;98953.50;4515639;31;34895;-83
2022/08/05 10:48:43;;;;;;;;;;;;;;;39.41;16.27;98943.56;4514036;31;33675;-83
2022/08/05 10:51:25;;;;;;;;;;;;;;;39.60;15.73;98936.91;4514556;31;34593;-83
2022/08/05 10:53:56;;;;;;;;;;;;;;;39.93;16.17;98945.00;4515372;31;35277;-84
2022/08/05 10:56:28;;;;;;;;;;;;;;;38.94;15.82;98941.44;4515461;31;34197;-83
2022/08/05 10:58:59;;;;;;;;;;;;;;;38.41;16.44;98942.66;4514173;31;33460;-83
2022/08/05 11:01:45;;;;;;;;;;;;;;;38.70;16.76;98939.53;4515384;31;35006;-83
2022/08/05 11:04:28;;;;;;;;;;;;;;;39.08;15.76;98924.53;4515648;31;33880;-83
2022/08/05 11:07:03;;;;;;;;;;;;;;;39.35;15.38;98927.94;4514288;31;33982;-83
2022/08/05 11:09:37;;;;;;;;;;;;;;;38.50;16.18;98933.56;4515294;31;34268;-83
2022/08/05 11:12:25;;;;;;;;;;;;;;;38.10;15.88;98936.91;4514177;31;34092;-83
2022/08/05 11:15:12;;;;;;;;;;;;;;;38.77;15.58;98928.88;4515365;31;33987;-83
2022/08/05 11:17:46;;;;;;;;;;;;;;;38.40;15.90;98932.84;4515535;31;33915;-84
2022/08/05 11:20:36;;;;;;;;;;;;;;;39.41;15.66;98933.53;4515617;31;33928;-84
2022/08/05 11:23:26;;;;;;;;;;;;;;;39.12;15.90;98915.03;4501871;31;34247;-83
2022/08/05 11:26:10;;;;;;;;;;;;;;;38.78;15.93;98919.72;4515463;31;33828;-83
2022/08/05 11:28:38;;;;;;;;;;;;;;;38.76;15.88;98919.06;4515173;31;33943;-83
2022/08/05 11:31:06;;;;;;;;;;;;;;;38.96;15.67;98917.75;4515388;31;34025;-84
2022/08/05 11:33:36;;;;;;;;;;;;;;;38.57;15.87;98909.38;4515305;31;34598;-83
2022/08/05 11:36:16;;;;;;;;;;;;;;;38.62;16.48;98917.84;4514021;31;35169;-86
2022/08/05 11:39:04;;;;;;;;;;;;;;;38.51;15.84;98919.00;4514984;31;34066;-84
2022/08/05 11:41:32;;;;;;;;;;;;;;;37.34;16.82;98929.44;4514296;31;33254;-83
2022/08/05 11:44:19;;;;;;;;;;;;;;;37.31;16.93;98930.56;4503058;31;34752;-84
2022/08/05 11:47:07;;;;;;;;;;;;;;;38.66;16.21;98906.50;4515140;31;34344;-84
2022/08/05 11:49:43;;;;;;;;;;;;;;;38.72;15.89;98914.97;4514787;31;34922;-84
2022/08/05 11:52:27;;;;;;;;;;;;;;;38.56;15.77;98927.44;4514136;31;34442;-85
2022/08/05 11:54:56;;;;;;;;;;;;;;;38.18;16.38;98926.09;4513948;31;34301;-83
2022/08/05 11:57:28;;;;;;;;;;;;;;;39.04;15.66;98912.34;4515239;31;34972;-84
2022/08/05 12:00:12;;;;;;;;;;;;;;;39.09;15.75;98912.66;4514997;31;34806;-84
2022/08/05 12:02:39;;;;;;;;;;;;;;;39.66;15.39;98912.63;4513792;31;33247;-84
2022/08/05 12:05:23;;;;;;;;;;;;;;;39.46;16.01;98911.31;4515169;31;34033;-84
2022/08/05 12:08:05;;;;;;;;;;;;;;;39.17;15.79;98918.13;4513909;31;34965;-82
2022/08/05 12:10:37;;;;;;;;;;;;;;;39.17;15.08;98907.25;4513476;31;34328;-85
2022/08/05 12:13:15;;;;;;;;;;;;;;;38.37;16.12;98909.63;4514994;31;34085;-84
2022/08/05 12:16:06;;;;;;;;;;;;;;;38.56;16.27;98904.94;4513843;31;34792;-84
2022/08/05 12:18:42;;;;;;;;;;;;;;;38.67;15.96;98913.59;4513720;31;34386;-84
2022/08/05 12:21:26;;;;;;;;;;;;;;;39.27;15.41;98906.25;4513341;31;33474;-84
2022/08/05 12:24:00;;;;;;;;;;;;;;;39.82;15.40;98908.25;4513704;31;34203;-84
2022/08/05 12:26:37;;;;;;;;;;;;;;;39.81;14.81;98909.25;4501091;31;35110;-84
2022/08/05 12:29:06;;;;;;;;;;;;;;;40.40;15.10;98893.44;4514970;31;34204;-83
2022/08/05 12:31:38;;;;;;;;;;;;;;;40.21;15.09;98902.87;4513681;31;33918;-84
2022/08/05 12:34:14;;;;;;;;;;;;;;;40.29;14.85;98894.69;4513766;31;33951;-84
2022/08/05 12:36:50;;;;;;;;;;;;;;;40.49;14.29;98894.22;4513310;31;34947;-84
2022/08/05 12:39:18;;;;;;;;;;;;;;;40.20;14.45;98895.75;4513506;31;35021;-84
2022/08/05 12:41:45;;;;;;;;;;;;;;;38.97;15.54;98892.34;4514656;31;34868;-86
2022/08/05 12:44:15;;;;;;;;;;;;;;;39.01;15.92;98893.69;4514582;31;33547;-85
2022/08/05 12:46:58;;;;;;;;;;;;;;;38.56;15.72;98897.66;4513681;31;35017;-84
2022/08/05 12:49:40;;;;;;;;;;;;;;;38.90;15.34;98897.56;4514312;31;34257;-84
2022/08/05 12:52:27;;;;;;;;;;;;;;;39.06;15.46;98888.63;4514390;31;33860;-85
2022/08/05 12:55:20;;;;;;;;;;;;;;;39.30;15.28;98885.06;4514618;31;33155;-85
2022/08/05 12:57:51;;;;;;;;;;;;;;;38.08;15.95;98888.34;4514486;31;33632;-84
2022/08/05 13:00:43;;;;;;;;;;;;;;;38.87;16.42;98880.78;4513517;31;34023;-84
2022/08/05 13:03:30;;;;;;;;;;;;;;;39.53;14.74;98876.22;4513429;31;34591;-85
2022/08/05 13:06:00;;;;;;;;;;;;;;;40.22;14.23;98879.25;4500062;31;33196;-85
2022/08/05 13:08:30;;;;;;;;;;;;;;;38.55;15.83;98881.59;4512954;31;33614;-84
2022/08/05 13:10:59;;;;;;;;;;;;;;;39.64;14.95;98865.84;4514243;31;34321;-85
2022/08/05 13:13:27;;;;;;;;;;;;;;;39.35;14.57;98871.00;4514218;31;33720;-84
2022/08/05 13:16:15;;;;;;;;;;;;;;;39.98;14.14;98867.47;4513106;31;33364;-84
2022/08/05 13:18:49;;;;;;;;;;;;;;;39.53;14.36;98863.50;4514169;31;33486;-86
2022/08/05 13:21:17;;;;;;;;;;;;;;;38.49;15.24;98853.28;4512461;31;34097;-85
2022/08/05 13:23:44;;;;;;;;;;;;;;;38.77;15.05;98859.25;4514139;31;34959;-86
2022/08/05 13:26:18;;;;;;;;;;;;;;;38.19;15.39;98855.56;4513871;31;33578;-85
2022/08/05 13:28:56;;;;;;;;;;;;;;;39.03;15.16;98851.00;4512913;31;35006;-85
2022/08/05 13:31:25;;;;;;;;;;;;;;;38.58;15.69;98849.59;4514255;31;34834;-84
2022/08/05 13:34:13;;;;;;;;;;;;;;;39.22;14.64;98848.97;4516194;31;34176;-84